East Enterprise, Indiana
Current Conditions -  °F | °C
As of 10:52 AM on Saturday 25 Oct 2014 (Local Time) from KCVG Reporting Station
Overcast Overcast  
Wind Chill: 58°   Ceiling: 2500
Heat Index: 58°   Visibility: 7mi
Dew Point: 50°   Wind: 8mph
Humidity: 75%   Direction: 220°SW
Pressure: 30"   Gusts: NA
Location:  38.87°N, 84.99°W
Report Text: KCVG 251452Z 22007KT 7SM BKN025 OVC055 14/10 A3000 RMK AO2 SLP155 OCNL BINOVC T01440100 53001
Loading
Personal Weather Stations






























Interactive Weather Map
Tropical Storm Tracking
New forecast layout! Learn more

10-Day Weather Forecast

Advertisements
Track Severe Weather on mobile